sensor_id;sensor_type;location;lat;lon;timestamp;P1;durP1;ratioP1;P2;durP2;ratioP2
15281;SDS011;7742;44.320;19.820;2023-04-23T00:02:18;21.63;;;20.27;;
15281;SDS011;7742;44.320;19.820;2023-04-23T00:04:48;20.80;;;19.60;;
15281;SDS011;7742;44.320;19.820;2023-04-23T00:07:16;19.85;;;18.58;;
15281;SDS011;7742;44.320;19.820;2023-04-23T00:09:44;20.63;;;19.33;;
15281;SDS011;7742;44.320;19.820;2023-04-23T00:12:12;20.30;;;19.10;;
15281;SDS011;7742;44.320;19.820;2023-04-23T00:14:41;19.75;;;18.55;;
15281;SDS011;7742;44.320;19.820;2023-04-23T00:17:09;19.38;;;18.25;;
15281;SDS011;7742;44.320;19.820;2023-04-23T00:19:36;19.92;;;18.63;;
15281;SDS011;7742;44.320;19.820;2023-04-23T00:22:03;18.95;;;17.83;;
15281;SDS011;7742;44.320;19.820;2023-04-23T00:24:30;20.27;;;19.08;;
15281;SDS011;7742;44.320;19.820;2023-04-23T00:27:00;18.00;;;16.90;;
15281;SDS011;7742;44.320;19.820;2023-04-23T00:29:27;19.27;;;18.17;;
15281;SDS011;7742;44.320;19.820;2023-04-23T00:31:56;19.33;;;18.02;;
15281;SDS011;7742;44.320;19.820;2023-04-23T00:34:26;19.45;;;18.35;;
15281;SDS011;7742;44.320;19.820;2023-04-23T00:36:52;20.77;;;19.48;;
15281;SDS011;7742;44.320;19.820;2023-04-23T00:39:19;20.33;;;19.07;;
15281;SDS011;7742;44.320;19.820;2023-04-23T00:41:47;20.55;;;19.35;;
15281;SDS011;7742;44.320;19.820;2023-04-23T00:44:14;19.88;;;18.70;;
15281;SDS011;7742;44.320;19.820;2023-04-23T00:46:42;20.33;;;19.13;;
15281;SDS011;7742;44.320;19.820;2023-04-23T00:49:13;19.42;;;18.23;;
15281;SDS011;7742;44.320;19.820;2023-04-23T00:51:41;18.75;;;17.55;;
15281;SDS011;7742;44.320;19.820;2023-04-23T00:54:08;19.98;;;18.67;;
15281;SDS011;7742;44.320;19.820;2023-04-23T00:56:35;19.20;;;18.10;;
15281;SDS011;7742;44.320;19.820;2023-04-23T00:59:04;18.40;;;17.20;;
15281;SDS011;7742;44.320;19.820;2023-04-23T01:01:31;17.10;;;15.95;;
15281;SDS011;7742;44.320;19.820;2023-04-23T01:03:58;18.65;;;17.38;;
15281;SDS011;7742;44.320;19.820;2023-04-23T01:06:31;18.90;;;17.70;;
15281;SDS011;7742;44.320;19.820;2023-04-23T01:11:44;17.60;;;16.50;;
15281;SDS011;7742;44.320;19.820;2023-04-23T01:14:12;19.58;;;18.38;;
15281;SDS011;7742;44.320;19.820;2023-04-23T01:16:39;19.30;;;18.13;;
15281;SDS011;7742;44.320;19.820;2023-04-23T01:19:06;19.27;;;18.08;;
15281;SDS011;7742;44.320;19.820;2023-04-23T01:21:34;19.67;;;18.35;;
15281;SDS011;7742;44.320;19.820;2023-04-23T01:24:03;20.17;;;18.80;;
15281;SDS011;7742;44.320;19.820;2023-04-23T01:26:30;19.35;;;18.23;;
15281;SDS011;7742;44.320;19.820;2023-04-23T01:28:58;20.20;;;18.90;;
15281;SDS011;7742;44.320;19.820;2023-04-23T01:31:25;19.98;;;18.58;;
15281;SDS011;7742;44.320;19.820;2023-04-23T01:33:52;18.73;;;17.55;;
15281;SDS011;7742;44.320;19.820;2023-04-23T01:36:20;18.20;;;17.00;;
15281;SDS011;7742;44.320;19.820;2023-04-23T01:38:47;18.27;;;16.98;;
15281;SDS011;7742;44.320;19.820;2023-04-23T01:41:17;17.83;;;16.73;;
15281;SDS011;7742;44.320;19.820;2023-04-23T01:43:45;19.87;;;18.57;;
15281;SDS011;7742;44.320;19.820;2023-04-23T01:46:12;21.05;;;19.65;;
15281;SDS011;7742;44.320;19.820;2023-04-23T01:48:39;19.57;;;18.47;;
15281;SDS011;7742;44.320;19.820;2023-04-23T01:51:06;20.00;;;18.75;;
15281;SDS011;7742;44.320;19.820;2023-04-23T01:53:33;20.50;;;19.10;;
15281;SDS011;7742;44.320;19.820;2023-04-23T01:56:00;20.20;;;18.90;;
15281;SDS011;7742;44.320;19.820;2023-04-23T01:58:29;19.52;;;18.30;;
15281;SDS011;7742;44.320;19.820;2023-04-23T02:00:56;19.42;;;18.10;;
15281;SDS011;7742;44.320;19.820;2023-04-23T02:03:23;18.10;;;16.80;;
15281;SDS011;7742;44.320;19.820;2023-04-23T02:05:50;18.98;;;17.55;;
15281;SDS011;7742;44.320;19.820;2023-04-23T02:08:19;18.50;;;17.10;;
15281;SDS011;7742;44.320;19.820;2023-04-23T02:10:46;18.23;;;17.02;;
15281;SDS011;7742;44.320;19.820;2023-04-23T02:13:13;19.85;;;18.65;;
15281;SDS011;7742;44.320;19.820;2023-04-23T02:15:41;18.95;;;17.85;;
15281;SDS011;7742;44.320;19.820;2023-04-23T02:18:08;20.35;;;19.05;;
15281;SDS011;7742;44.320;19.820;2023-04-23T02:20:36;19.58;;;18.23;;
15281;SDS011;7742;44.320;19.820;2023-04-23T02:23:05;18.73;;;17.67;;
15281;SDS011;7742;44.320;19.820;2023-04-23T02:25:33;20.60;;;19.30;;
15281;SDS011;7742;44.320;19.820;2023-04-23T02:28:02;20.38;;;18.98;;
15281;SDS011;7742;44.320;19.820;2023-04-23T02:30:31;20.50;;;18.83;;
15281;SDS011;7742;44.320;19.820;2023-04-23T02:33:00;20.30;;;19.00;;
15281;SDS011;7742;44.320;19.820;2023-04-23T02:35:27;22.10;;;20.60;;
15281;SDS011;7742;44.320;19.820;2023-04-23T02:37:54;21.25;;;20.00;;
15281;SDS011;7742;44.320;19.820;2023-04-23T02:40:24;21.20;;;19.90;;
15281;SDS011;7742;44.320;19.820;2023-04-23T02:43:07;21.40;;;19.90;;
15281;SDS011;7742;44.320;19.820;2023-04-23T02:45:49;20.42;;;19.13;;
15281;SDS011;7742;44.320;19.820;2023-04-23T02:48:18;20.15;;;18.75;;
15281;SDS011;7742;44.320;19.820;2023-04-23T02:50:46;20.30;;;19.00;;
15281;SDS011;7742;44.320;19.820;2023-04-23T02:53:13;21.48;;;20.02;;
15281;SDS011;7742;44.320;19.820;2023-04-23T02:55:40;21.07;;;19.73;;
15281;SDS011;7742;44.320;19.820;2023-04-23T02:58:07;20.02;;;18.65;;
15281;SDS011;7742;44.320;19.820;2023-04-23T03:00:34;19.70;;;18.50;;
15281;SDS011;7742;44.320;19.820;2023-04-23T03:03:01;19.25;;;18.05;;
15281;SDS011;7742;44.320;19.820;2023-04-23T03:05:30;20.15;;;18.95;;
15281;SDS011;7742;44.320;19.820;2023-04-23T03:07:57;19.57;;;18.37;;
15281;SDS011;7742;44.320;19.820;2023-04-23T03:10:23;18.98;;;17.63;;
15281;SDS011;7742;44.320;19.820;2023-04-23T03:15:51;21.20;;;19.70;;
15281;SDS011;7742;44.320;19.820;2023-04-23T03:18:18;21.20;;;19.80;;
15281;SDS011;7742;44.320;19.820;2023-04-23T03:20:47;20.17;;;18.77;;
15281;SDS011;7742;44.320;19.820;2023-04-23T03:23:14;20.08;;;18.63;;
15281;SDS011;7742;44.320;19.820;2023-04-23T03:25:41;21.95;;;20.48;;
15281;SDS011;7742;44.320;19.820;2023-04-23T03:28:08;22.10;;;20.50;;
15281;SDS011;7742;44.320;19.820;2023-04-23T03:30:35;21.85;;;20.55;;
15281;SDS011;7742;44.320;19.820;2023-04-23T03:33:02;21.80;;;20.40;;
15281;SDS011;7742;44.320;19.820;2023-04-23T03:35:29;22.08;;;20.67;;
15281;SDS011;7742;44.320;19.820;2023-04-23T03:37:57;22.35;;;20.80;;
15281;SDS011;7742;44.320;19.820;2023-04-23T03:40:24;20.63;;;19.27;;
15281;SDS011;7742;44.320;19.820;2023-04-23T03:42:53;21.90;;;20.40;;
15281;SDS011;7742;44.320;19.820;2023-04-23T03:45:22;21.67;;;20.33;;
15281;SDS011;7742;44.320;19.820;2023-04-23T03:47:54;22.08;;;20.23;;
15281;SDS011;7742;44.320;19.820;2023-04-23T03:50:24;21.23;;;19.73;;
15281;SDS011;7742;44.320;19.820;2023-04-23T03:55:58;20.90;;;19.40;;
15281;SDS011;7742;44.320;19.820;2023-04-23T03:58:25;20.42;;;19.10;;
15281;SDS011;7742;44.320;19.820;2023-04-23T04:00:52;20.87;;;19.47;;
15281;SDS011;7742;44.320;19.820;2023-04-23T04:03:18;22.08;;;20.48;;
15281;SDS011;7742;44.320;19.820;2023-04-23T04:05:47;20.48;;;19.08;;
15281;SDS011;7742;44.320;19.820;2023-04-23T04:08:32;21.60;;;20.00;;
15281;SDS011;7742;44.320;19.820;2023-04-23T04:11:01;35.58;;;32.15;;
15281;SDS011;7742;44.320;19.820;2023-04-23T04:13:28;68.80;;;54.05;;
15281;SDS011;7742;44.320;19.820;2023-04-23T04:16:02;44.55;;;39.70;;
15281;SDS011;7742;44.320;19.820;2023-04-23T04:18:29;40.83;;;36.70;;
15281;SDS011;7742;44.320;19.820;2023-04-23T04:20:56;41.78;;;37.45;;
15281;SDS011;7742;44.320;19.820;2023-04-23T04:23:23;41.17;;;36.97;;
15281;SDS011;7742;44.320;19.820;2023-04-23T04:25:50;30.05;;;27.45;;
15281;SDS011;7742;44.320;19.820;2023-04-23T04:28:22;26.55;;;24.35;;
15281;SDS011;7742;44.320;19.820;2023-04-23T04:33:38;53.45;;;47.25;;
15281;SDS011;7742;44.320;19.820;2023-04-23T04:36:06;36.58;;;33.22;;
15281;SDS011;7742;44.320;19.820;2023-04-23T04:38:34;34.47;;;31.25;;
15281;SDS011;7742;44.320;19.820;2023-04-23T04:41:04;48.58;;;43.05;;
15281;SDS011;7742;44.320;19.820;2023-04-23T04:43:33;46.83;;;41.83;;
15281;SDS011;7742;44.320;19.820;2023-04-23T04:46:00;21.75;;;19.95;;
15281;SDS011;7742;44.320;19.820;2023-04-23T04:48:28;31.75;;;28.77;;
15281;SDS011;7742;44.320;19.820;2023-04-23T04:51:08;30.95;;;28.08;;
15281;SDS011;7742;44.320;19.820;2023-04-23T04:53:45;29.75;;;27.35;;
15281;SDS011;7742;44.320;19.820;2023-04-23T04:56:31;35.72;;;32.65;;
15281;SDS011;7742;44.320;19.820;2023-04-23T04:59:13;30.53;;;28.10;;
15281;SDS011;7742;44.320;19.820;2023-04-23T05:01:40;27.40;;;25.30;;
15281;SDS011;7742;44.320;19.820;2023-04-23T05:04:10;22.08;;;20.48;;
15281;SDS011;7742;44.320;19.820;2023-04-23T05:06:37;22.35;;;20.65;;
15281;SDS011;7742;44.320;19.820;2023-04-23T05:09:04;22.38;;;20.67;;
15281;SDS011;7742;44.320;19.820;2023-04-23T05:11:32;21.00;;;19.60;;
15281;SDS011;7742;44.320;19.820;2023-04-23T05:14:00;22.58;;;20.98;;
15281;SDS011;7742;44.320;19.820;2023-04-23T05:16:30;22.02;;;20.52;;
15281;SDS011;7742;44.320;19.820;2023-04-23T05:18:56;20.40;;;19.00;;
15281;SDS011;7742;44.320;19.820;2023-04-23T05:21:23;21.10;;;19.35;;
15281;SDS011;7742;44.320;19.820;2023-04-23T05:23:51;19.83;;;18.58;;
15281;SDS011;7742;44.320;19.820;2023-04-23T05:26:18;22.00;;;20.48;;
15281;SDS011;7742;44.320;19.820;2023-04-23T05:28:45;21.17;;;19.77;;
15281;SDS011;7742;44.320;19.820;2023-04-23T05:31:12;20.85;;;19.35;;
15281;SDS011;7742;44.320;19.820;2023-04-23T05:33:41;20.17;;;18.77;;
15281;SDS011;7742;44.320;19.820;2023-04-23T05:36:09;20.95;;;19.45;;
15281;SDS011;7742;44.320;19.820;2023-04-23T05:38:36;19.48;;;18.15;;
15281;SDS011;7742;44.320;19.820;2023-04-23T05:41:03;20.50;;;19.05;;
15281;SDS011;7742;44.320;19.820;2023-04-23T05:43:30;22.20;;;20.50;;
15281;SDS011;7742;44.320;19.820;2023-04-23T05:45:57;24.05;;;22.45;;
15281;SDS011;7742;44.320;19.820;2023-04-23T05:48:25;22.77;;;21.23;;
15281;SDS011;7742;44.320;19.820;2023-04-23T05:50:53;22.45;;;20.95;;
15281;SDS011;7742;44.320;19.820;2023-04-23T05:53:20;23.45;;;21.83;;
15281;SDS011;7742;44.320;19.820;2023-04-23T05:55:47;23.35;;;21.58;;
15281;SDS011;7742;44.320;19.820;2023-04-23T05:58:14;22.73;;;20.80;;
15281;SDS011;7742;44.320;19.820;2023-04-23T06:00:41;22.48;;;21.02;;
15281;SDS011;7742;44.320;19.820;2023-04-23T06:03:08;23.60;;;22.10;;
15281;SDS011;7742;44.320;19.820;2023-04-23T06:05:35;24.08;;;22.48;;
15281;SDS011;7742;44.320;19.820;2023-04-23T06:08:03;28.02;;;26.15;;
15281;SDS011;7742;44.320;19.820;2023-04-23T06:10:31;25.30;;;23.42;;
15281;SDS011;7742;44.320;19.820;2023-04-23T06:12:57;23.95;;;22.35;;
15281;SDS011;7742;44.320;19.820;2023-04-23T06:15:24;21.58;;;20.05;;
15281;SDS011;7742;44.320;19.820;2023-04-23T06:17:51;24.92;;;23.30;;
15281;SDS011;7742;44.320;19.820;2023-04-23T06:20:19;23.25;;;21.75;;
15281;SDS011;7742;44.320;19.820;2023-04-23T06:22:45;23.25;;;21.75;;
15281;SDS011;7742;44.320;19.820;2023-04-23T06:25:14;24.05;;;22.55;;
15281;SDS011;7742;44.320;19.820;2023-04-23T06:27:41;24.60;;;23.00;;
15281;SDS011;7742;44.320;19.820;2023-04-23T06:30:09;21.50;;;20.20;;
15281;SDS011;7742;44.320;19.820;2023-04-23T06:32:36;20.17;;;18.83;;
15281;SDS011;7742;44.320;19.820;2023-04-23T06:35:03;20.38;;;19.00;;
15281;SDS011;7742;44.320;19.820;2023-04-23T06:37:30;20.40;;;19.08;;
15281;SDS011;7742;44.320;19.820;2023-04-23T06:39:57;19.33;;;18.08;;
15281;SDS011;7742;44.320;19.820;2023-04-23T06:42:25;21.00;;;19.70;;
15281;SDS011;7742;44.320;19.820;2023-04-23T06:44:53;23.33;;;21.90;;
15281;SDS011;7742;44.320;19.820;2023-04-23T06:47:20;23.63;;;22.13;;
15281;SDS011;7742;44.320;19.820;2023-04-23T06:49:46;21.88;;;20.38;;
15281;SDS011;7742;44.320;19.820;2023-04-23T06:52:13;21.83;;;20.37;;
15281;SDS011;7742;44.320;19.820;2023-04-23T06:54:40;21.73;;;20.13;;
15281;SDS011;7742;44.320;19.820;2023-04-23T06:57:08;24.63;;;23.02;;
15281;SDS011;7742;44.320;19.820;2023-04-23T06:59:36;23.52;;;22.02;;
15281;SDS011;7742;44.320;19.820;2023-04-23T07:02:03;23.35;;;21.95;;
15281;SDS011;7742;44.320;19.820;2023-04-23T07:04:30;22.30;;;21.00;;
15281;SDS011;7742;44.320;19.820;2023-04-23T07:06:57;23.67;;;22.30;;
15281;SDS011;7742;44.320;19.820;2023-04-23T07:09:25;22.80;;;21.50;;
15281;SDS011;7742;44.320;19.820;2023-04-23T07:11:52;23.43;;;21.93;;
15281;SDS011;7742;44.320;19.820;2023-04-23T07:14:20;22.60;;;21.13;;
15281;SDS011;7742;44.320;19.820;2023-04-23T07:16:49;22.17;;;20.67;;
15281;SDS011;7742;44.320;19.820;2023-04-23T07:19:16;22.90;;;21.30;;
15281;SDS011;7742;44.320;19.820;2023-04-23T07:21:43;21.93;;;20.43;;
15281;SDS011;7742;44.320;19.820;2023-04-23T07:24:10;23.07;;;21.53;;
15281;SDS011;7742;44.320;19.820;2023-04-23T07:26:37;22.83;;;21.20;;
15281;SDS011;7742;44.320;19.820;2023-04-23T07:29:04;23.75;;;22.05;;
15281;SDS011;7742;44.320;19.820;2023-04-23T07:31:32;22.20;;;20.70;;
15281;SDS011;7742;44.320;19.820;2023-04-23T07:34:00;27.30;;;25.75;;
15281;SDS011;7742;44.320;19.820;2023-04-23T07:36:27;30.77;;;29.08;;
15281;SDS011;7742;44.320;19.820;2023-04-23T07:38:55;28.75;;;26.85;;
15281;SDS011;7742;44.320;19.820;2023-04-23T07:41:22;23.75;;;22.33;;
15281;SDS011;7742;44.320;19.820;2023-04-23T07:43:50;26.70;;;25.10;;
15281;SDS011;7742;44.320;19.820;2023-04-23T07:46:17;27.53;;;25.93;;
15281;SDS011;7742;44.320;19.820;2023-04-23T07:48:44;24.87;;;23.40;;
15281;SDS011;7742;44.320;19.820;2023-04-23T07:51:12;22.47;;;21.17;;
15281;SDS011;7742;44.320;19.820;2023-04-23T07:53:40;19.03;;;17.93;;
15281;SDS011;7742;44.320;19.820;2023-04-23T07:56:07;19.93;;;18.83;;
15281;SDS011;7742;44.320;19.820;2023-04-23T07:58:34;19.50;;;18.17;;
15281;SDS011;7742;44.320;19.820;2023-04-23T08:01:01;18.43;;;17.37;;
15281;SDS011;7742;44.320;19.820;2023-04-23T08:03:28;18.70;;;17.70;;
15281;SDS011;7742;44.320;19.820;2023-04-23T08:05:55;18.77;;;17.77;;
15281;SDS011;7742;44.320;19.820;2023-04-23T08:08:24;19.83;;;18.57;;
15281;SDS011;7742;44.320;19.820;2023-04-23T08:10:51;18.73;;;17.60;;
15281;SDS011;7742;44.320;19.820;2023-04-23T08:13:18;18.87;;;17.67;;
15281;SDS011;7742;44.320;19.820;2023-04-23T08:15:45;17.80;;;16.63;;
15281;SDS011;7742;44.320;19.820;2023-04-23T08:18:13;17.80;;;16.63;;
15281;SDS011;7742;44.320;19.820;2023-04-23T08:20:40;18.43;;;17.20;;
15281;SDS011;7742;44.320;19.820;2023-04-23T08:23:07;17.47;;;16.37;;
15281;SDS011;7742;44.320;19.820;2023-04-23T08:25:36;17.47;;;16.40;;
15281;SDS011;7742;44.320;19.820;2023-04-23T08:28:03;18.03;;;16.83;;
15281;SDS011;7742;44.320;19.820;2023-04-23T08:30:30;16.67;;;15.70;;
15281;SDS011;7742;44.320;19.820;2023-04-23T08:32:56;16.00;;;14.90;;
15281;SDS011;7742;44.320;19.820;2023-04-23T08:35:24;16.60;;;15.50;;
15281;SDS011;7742;44.320;19.820;2023-04-23T08:37:51;17.77;;;16.67;;
15281;SDS011;7742;44.320;19.820;2023-04-23T08:40:18;18.33;;;17.33;;
15281;SDS011;7742;44.320;19.820;2023-04-23T08:42:48;18.67;;;17.50;;
15281;SDS011;7742;44.320;19.820;2023-04-23T08:45:15;19.87;;;18.50;;
15281;SDS011;7742;44.320;19.820;2023-04-23T08:47:42;19.13;;;18.13;;
15281;SDS011;7742;44.320;19.820;2023-04-23T08:50:09;18.17;;;16.90;;
15281;SDS011;7742;44.320;19.820;2023-04-23T08:52:38;17.67;;;16.47;;
15281;SDS011;7742;44.320;19.820;2023-04-23T08:55:07;20.23;;;19.03;;
15281;SDS011;7742;44.320;19.820;2023-04-23T08:57:34;19.13;;;17.90;;
15281;SDS011;7742;44.320;19.820;2023-04-23T09:00:04;17.93;;;16.83;;
15281;SDS011;7742;44.320;19.820;2023-04-23T09:02:33;18.30;;;17.30;;
15281;SDS011;7742;44.320;19.820;2023-04-23T09:05:01;18.00;;;16.93;;
15281;SDS011;7742;44.320;19.820;2023-04-23T09:07:28;17.90;;;16.90;;
15281;SDS011;7742;44.320;19.820;2023-04-23T09:09:55;17.93;;;16.63;;
15281;SDS011;7742;44.320;19.820;2023-04-23T09:12:22;19.73;;;17.73;;
15281;SDS011;7742;44.320;19.820;2023-04-23T09:14:50;17.10;;;16.20;;
15281;SDS011;7742;44.320;19.820;2023-04-23T09:17:19;17.60;;;16.50;;
15281;SDS011;7742;44.320;19.820;2023-04-23T09:19:46;17.90;;;16.80;;
15281;SDS011;7742;44.320;19.820;2023-04-23T09:22:13;18.13;;;17.03;;
15281;SDS011;7742;44.320;19.820;2023-04-23T09:24:40;17.87;;;16.80;;
15281;SDS011;7742;44.320;19.820;2023-04-23T09:27:08;17.20;;;16.13;;
15281;SDS011;7742;44.320;19.820;2023-04-23T09:29:35;17.30;;;16.40;;
15281;SDS011;7742;44.320;19.820;2023-04-23T09:32:04;18.30;;;17.30;;
15281;SDS011;7742;44.320;19.820;2023-04-23T09:34:33;18.43;;;17.43;;
15281;SDS011;7742;44.320;19.820;2023-04-23T09:37:00;18.30;;;17.00;;
15281;SDS011;7742;44.320;19.820;2023-04-23T09:39:28;21.97;;;20.77;;
15281;SDS011;7742;44.320;19.820;2023-04-23T09:41:55;19.17;;;18.07;;
15281;SDS011;7742;44.320;19.820;2023-04-23T09:44:30;19.40;;;18.10;;
15281;SDS011;7742;44.320;19.820;2023-04-23T09:47:04;20.23;;;18.87;;
15281;SDS011;7742;44.320;19.820;2023-04-23T09:49:45;18.70;;;17.60;;
15281;SDS011;7742;44.320;19.820;2023-04-23T09:52:12;18.73;;;17.20;;
15281;SDS011;7742;44.320;19.820;2023-04-23T09:54:42;19.20;;;17.90;;
15281;SDS011;7742;44.320;19.820;2023-04-23T09:57:12;19.60;;;18.30;;
15281;SDS011;7742;44.320;19.820;2023-04-23T09:59:41;20.07;;;18.57;;
15281;SDS011;7742;44.320;19.820;2023-04-23T10:02:08;19.27;;;17.87;;
15281;SDS011;7742;44.320;19.820;2023-04-23T10:04:36;18.63;;;17.07;;
15281;SDS011;7742;44.320;19.820;2023-04-23T10:07:05;19.60;;;18.50;;
15281;SDS011;7742;44.320;19.820;2023-04-23T10:09:32;17.00;;;16.00;;
15281;SDS011;7742;44.320;19.820;2023-04-23T10:12:00;16.70;;;15.80;;
15281;SDS011;7742;44.320;19.820;2023-04-23T10:14:27;19.83;;;18.73;;
15281;SDS011;7742;44.320;19.820;2023-04-23T10:16:56;19.43;;;18.03;;
15281;SDS011;7742;44.320;19.820;2023-04-23T10:19:23;21.40;;;19.40;;
15281;SDS011;7742;44.320;19.820;2023-04-23T10:21:52;22.43;;;20.83;;
15281;SDS011;7742;44.320;19.820;2023-04-23T10:24:21;23.07;;;21.57;;
15281;SDS011;7742;44.320;19.820;2023-04-23T10:26:49;19.07;;;17.77;;
15281;SDS011;7742;44.320;19.820;2023-04-23T10:29:17;18.93;;;17.60;;
15281;SDS011;7742;44.320;19.820;2023-04-23T10:31:44;18.90;;;17.57;;
15281;SDS011;7742;44.320;19.820;2023-04-23T10:34:11;19.17;;;17.87;;
15281;SDS011;7742;44.320;19.820;2023-04-23T10:36:38;17.40;;;16.23;;
15281;SDS011;7742;44.320;19.820;2023-04-23T10:39:05;17.37;;;16.33;;
15281;SDS011;7742;44.320;19.820;2023-04-23T10:41:36;20.00;;;18.60;;
15281;SDS011;7742;44.320;19.820;2023-04-23T10:44:04;19.37;;;18.07;;
15281;SDS011;7742;44.320;19.820;2023-04-23T10:46:31;18.40;;;17.10;;
15281;SDS011;7742;44.320;19.820;2023-04-23T10:49:05;18.87;;;17.57;;
15281;SDS011;7742;44.320;19.820;2023-04-23T10:51:32;21.37;;;20.20;;
15281;SDS011;7742;44.320;19.820;2023-04-23T10:54:01;17.77;;;16.77;;
15281;SDS011;7742;44.320;19.820;2023-04-23T10:56:28;19.30;;;18.20;;
15281;SDS011;7742;44.320;19.820;2023-04-23T10:58:56;17.50;;;16.40;;
15281;SDS011;7742;44.320;19.820;2023-04-23T11:01:27;17.73;;;16.70;;
15281;SDS011;7742;44.320;19.820;2023-04-23T11:03:54;19.53;;;18.17;;
15281;SDS011;7742;44.320;19.820;2023-04-23T11:09:06;16.80;;;15.73;;
15281;SDS011;7742;44.320;19.820;2023-04-23T11:11:50;19.63;;;18.40;;
15281;SDS011;7742;44.320;19.820;2023-04-23T11:14:18;18.03;;;16.83;;
15281;SDS011;7742;44.320;19.820;2023-04-23T11:16:46;14.73;;;13.83;;
15281;SDS011;7742;44.320;19.820;2023-04-23T11:19:14;16.73;;;15.73;;
15281;SDS011;7742;44.320;19.820;2023-04-23T11:22:00;18.40;;;17.30;;
15281;SDS011;7742;44.320;19.820;2023-04-23T11:24:28;16.93;;;15.97;;
15281;SDS011;7742;44.320;19.820;2023-04-23T11:26:55;17.47;;;16.27;;
15281;SDS011;7742;44.320;19.820;2023-04-23T11:29:24;15.33;;;14.50;;
15281;SDS011;7742;44.320;19.820;2023-04-23T11:31:51;17.73;;;16.63;;
15281;SDS011;7742;44.320;19.820;2023-04-23T11:34:18;16.57;;;15.63;;
15281;SDS011;7742;44.320;19.820;2023-04-23T11:36:45;17.40;;;16.30;;
15281;SDS011;7742;44.320;19.820;2023-04-23T11:39:13;17.33;;;16.30;;
15281;SDS011;7742;44.320;19.820;2023-04-23T11:41:40;17.00;;;15.97;;
15281;SDS011;7742;44.320;19.820;2023-04-23T11:44:08;16.03;;;15.10;;
15281;SDS011;7742;44.320;19.820;2023-04-23T11:46:37;17.53;;;16.50;;
15281;SDS011;7742;44.320;19.820;2023-04-23T11:49:04;18.03;;;17.03;;
15281;SDS011;7742;44.320;19.820;2023-04-23T11:51:33;17.90;;;16.67;;
15281;SDS011;7742;44.320;19.820;2023-04-23T11:54:04;16.53;;;15.63;;
15281;SDS011;7742;44.320;19.820;2023-04-23T11:56:31;18.87;;;17.77;;
15281;SDS011;7742;44.320;19.820;2023-04-23T11:58:59;17.40;;;16.40;;
15281;SDS011;7742;44.320;19.820;2023-04-23T12:01:39;17.20;;;16.30;;
15281;SDS011;7742;44.320;19.820;2023-04-23T12:04:10;17.47;;;16.47;;
15281;SDS011;7742;44.320;19.820;2023-04-23T12:06:38;75.20;;;23.33;;
15281;SDS011;7742;44.320;19.820;2023-04-23T12:09:05;17.37;;;16.47;;
15281;SDS011;7742;44.320;19.820;2023-04-23T12:11:33;16.97;;;15.93;;
15281;SDS011;7742;44.320;19.820;2023-04-23T12:14:00;16.87;;;15.67;;
15281;SDS011;7742;44.320;19.820;2023-04-23T12:16:34;16.73;;;15.83;;
15281;SDS011;7742;44.320;19.820;2023-04-23T12:19:04;16.20;;;15.20;;
15281;SDS011;7742;44.320;19.820;2023-04-23T12:21:33;14.00;;;13.30;;
15281;SDS011;7742;44.320;19.820;2023-04-23T12:24:01;16.40;;;15.50;;
15281;SDS011;7742;44.320;19.820;2023-04-23T12:26:29;15.60;;;14.60;;
15281;SDS011;7742;44.320;19.820;2023-04-23T12:28:57;16.13;;;15.23;;
15281;SDS011;7742;44.320;19.820;2023-04-23T12:31:25;17.30;;;16.20;;
15281;SDS011;7742;44.320;19.820;2023-04-23T12:33:53;15.77;;;14.87;;
15281;SDS011;7742;44.320;19.820;2023-04-23T12:36:27;15.90;;;14.90;;
15281;SDS011;7742;44.320;19.820;2023-04-23T12:41:38;15.50;;;14.50;;
15281;SDS011;7742;44.320;19.820;2023-04-23T12:44:04;15.63;;;14.73;;
15281;SDS011;7742;44.320;19.820;2023-04-23T12:46:32;14.00;;;13.10;;
15281;SDS011;7742;44.320;19.820;2023-04-23T12:49:00;12.90;;;12.30;;
15281;SDS011;7742;44.320;19.820;2023-04-23T12:51:28;13.00;;;12.30;;
15281;SDS011;7742;44.320;19.820;2023-04-23T12:53:55;15.20;;;14.40;;
15281;SDS011;7742;44.320;19.820;2023-04-23T12:56:22;15.07;;;14.27;;
15281;SDS011;7742;44.320;19.820;2023-04-23T12:58:50;15.70;;;14.90;;
15281;SDS011;7742;44.320;19.820;2023-04-23T13:01:17;17.20;;;16.20;;
15281;SDS011;7742;44.320;19.820;2023-04-23T13:03:44;17.27;;;16.27;;
15281;SDS011;7742;44.320;19.820;2023-04-23T13:06:11;18.27;;;17.27;;
15281;SDS011;7742;44.320;19.820;2023-04-23T13:08:39;16.73;;;15.87;;
15281;SDS011;7742;44.320;19.820;2023-04-23T13:11:06;16.80;;;15.80;;
15281;SDS011;7742;44.320;19.820;2023-04-23T13:13:33;18.23;;;17.17;;
15281;SDS011;7742;44.320;19.820;2023-04-23T13:16:00;18.30;;;17.10;;
15281;SDS011;7742;44.320;19.820;2023-04-23T13:18:29;17.73;;;16.63;;
15281;SDS011;7742;44.320;19.820;2023-04-23T13:20:55;17.73;;;16.53;;
15281;SDS011;7742;44.320;19.820;2023-04-23T13:23:23;18.43;;;17.23;;
15281;SDS011;7742;44.320;19.820;2023-04-23T13:25:52;17.83;;;16.53;;
15281;SDS011;7742;44.320;19.820;2023-04-23T13:28:19;18.13;;;17.03;;
15281;SDS011;7742;44.320;19.820;2023-04-23T13:30:46;18.13;;;16.97;;
15281;SDS011;7742;44.320;19.820;2023-04-23T13:33:12;17.90;;;16.70;;
15281;SDS011;7742;44.320;19.820;2023-04-23T13:35:40;17.30;;;16.30;;
15281;SDS011;7742;44.320;19.820;2023-04-23T13:38:07;17.80;;;16.70;;
15281;SDS011;7742;44.320;19.820;2023-04-23T13:40:34;16.93;;;15.93;;
15281;SDS011;7742;44.320;19.820;2023-04-23T13:43:02;17.33;;;16.23;;
15281;SDS011;7742;44.320;19.820;2023-04-23T13:45:29;18.80;;;17.50;;
15281;SDS011;7742;44.320;19.820;2023-04-23T13:47:56;17.97;;;16.87;;
15281;SDS011;7742;44.320;19.820;2023-04-23T13:50:24;19.07;;;17.87;;
15281;SDS011;7742;44.320;19.820;2023-04-23T13:52:51;18.50;;;17.40;;
15281;SDS011;7742;44.320;19.820;2023-04-23T13:55:18;18.47;;;17.27;;
15281;SDS011;7742;44.320;19.820;2023-04-23T13:57:45;17.67;;;16.47;;
15281;SDS011;7742;44.320;19.820;2023-04-23T14:00:14;18.17;;;16.80;;
15281;SDS011;7742;44.320;19.820;2023-04-23T14:02:41;17.90;;;16.90;;
15281;SDS011;7742;44.320;19.820;2023-04-23T14:05:08;16.50;;;15.33;;
15281;SDS011;7742;44.320;19.820;2023-04-23T14:07:35;15.20;;;14.40;;
15281;SDS011;7742;44.320;19.820;2023-04-23T14:10:02;15.87;;;14.90;;
15281;SDS011;7742;44.320;19.820;2023-04-23T14:12:29;15.70;;;14.80;;
15281;SDS011;7742;44.320;19.820;2023-04-23T14:14:56;16.20;;;15.30;;
15281;SDS011;7742;44.320;19.820;2023-04-23T14:17:25;16.87;;;15.80;;
15281;SDS011;7742;44.320;19.820;2023-04-23T14:19:51;16.67;;;15.30;;
15281;SDS011;7742;44.320;19.820;2023-04-23T14:22:18;18.90;;;17.50;;
15281;SDS011;7742;44.320;19.820;2023-04-23T14:24:45;18.47;;;17.27;;
15281;SDS011;7742;44.320;19.820;2023-04-23T14:27:15;16.80;;;15.63;;
15281;SDS011;7742;44.320;19.820;2023-04-23T14:29:44;17.13;;;16.03;;
15281;SDS011;7742;44.320;19.820;2023-04-23T14:32:12;16.10;;;15.10;;
15281;SDS011;7742;44.320;19.820;2023-04-23T14:34:40;15.97;;;15.03;;
15281;SDS011;7742;44.320;19.820;2023-04-23T14:37:08;17.40;;;16.30;;
15281;SDS011;7742;44.320;19.820;2023-04-23T14:39:35;17.03;;;16.03;;
15281;SDS011;7742;44.320;19.820;2023-04-23T14:42:02;17.67;;;16.57;;
15281;SDS011;7742;44.320;19.820;2023-04-23T14:44:29;17.83;;;16.77;;